Time;durP1;ratioP1;P1;durP2;ratioP2;P2;SDS_P1;SDS_P2;PMS_P1;PMS_P2;Temp;Humidity;BMP_temperature;BMP_pressure;BME280_temperature;BME280_humidity;BME280_pressure;Samples;Min_cycle;Max_cycle;Signal;HPM_P1;HPM_P2
2023/04/09 00:01:00;;;;;;;32.10;5.50;;;;;;;;;;2062186;28;20432;-60
2023/04/09 00:02:19;;;;;;;23.20;5.65;;;;;;;;;;2062335;28;20046;-62
2023/04/09 00:03:39;;;;;;;20.65;5.68;;;;;;;;;;2059414;28;20050;-61
2023/04/09 00:05:00;;;;;;;24.10;5.45;;;;;;;;;;2062563;28;20113;-61
2023/04/09 00:06:19;;;;;;;31.92;5.60;;;;;;;;;;2062334;28;20030;-61
2023/04/09 00:07:38;;;;;;;21.00;5.47;;;;;;;;;;2060084;28;20034;-62
2023/04/09 00:08:57;;;;;;;30.10;5.40;;;;;;;;;;2062299;28;20026;-61
2023/04/09 00:10:16;;;;;;;30.77;5.90;;;;;;;;;;2061923;28;20039;-62
2023/04/09 00:11:35;;;;;;;23.67;5.25;;;;;;;;;;2061524;28;20038;-61
2023/04/09 00:12:54;;;;;;;26.25;5.78;;;;;;;;;;2060280;28;20038;-62
2023/04/09 00:14:13;;;;;;;16.75;4.88;;;;;;;;;;2063269;28;20023;-61
2023/04/09 00:15:32;;;;;;;29.17;5.40;;;;;;;;;;2063194;28;20495;-61
2023/04/09 00:16:51;;;;;;;28.27;5.38;;;;;;;;;;2061696;28;20027;-61
2023/04/09 00:18:10;;;;;;;29.90;5.40;;;;;;;;;;2062050;28;20022;-61
2023/04/09 00:19:29;;;;;;;31.83;4.65;;;;;;;;;;2058822;28;20541;-61
2023/04/09 00:20:48;;;;;;;24.45;4.45;;;;;;;;;;2063389;28;20034;-61
2023/04/09 00:22:07;;;;;;;25.30;5.45;;;;;;;;;;2063557;28;20042;-61
2023/04/09 00:23:25;;;;;;;16.02;3.70;;;;;;;;;;2063718;28;20043;-61
2023/04/09 00:24:45;;;;;;;19.65;5.20;;;;;;;;;;2060530;28;20030;-61
2023/04/09 00:26:04;;;;;;;11.63;3.92;;;;;;;;;;2062139;28;20701;-61
2023/04/09 00:27:23;;;;;;;25.90;5.50;;;;;;;;;;2060203;28;20148;-62
2023/04/09 00:28:42;;;;;;;20.63;5.50;;;;;;;;;;2061719;28;20105;-61
2023/04/09 00:30:01;;;;;;;18.23;4.72;;;;;;;;;;2061664;28;20473;-60
2023/04/09 00:31:20;;;;;;;31.33;4.85;;;;;;;;;;2061572;28;20476;-61
2023/04/09 00:32:39;;;;;;;34.80;4.78;;;;;;;;;;2060873;28;20042;-61
2023/04/09 00:33:58;;;;;;;37.00;5.10;;;;;;;;;;2061741;28;20034;-61
2023/04/09 00:35:17;;;;;;;27.40;5.28;;;;;;;;;;2062960;28;20431;-60
2023/04/09 00:36:35;;;;;;;22.83;4.70;;;;;;;;;;2062286;28;20077;-62
2023/04/09 00:37:54;;;;;;;33.50;4.78;;;;;;;;;;2059962;28;20537;-60
2023/04/09 00:39:13;;;;;;;27.17;5.22;;;;;;;;;;2060501;28;20026;-63
2023/04/09 00:40:32;;;;;;;37.45;6.57;;;;;;;;;;2060235;28;20023;-61
2023/04/09 00:41:56;;;;;;;23.92;5.88;;;;;;;;;;2061748;28;21426;-60
2023/04/09 00:43:15;;;;;;;21.13;4.95;;;;;;;;;;2064331;28;20042;-60
2023/04/09 00:44:34;;;;;;;24.40;4.85;;;;;;;;;;2061581;28;20030;-60
2023/04/09 00:45:53;;;;;;;23.05;5.15;;;;;;;;;;2062095;28;20022;-60
2023/04/09 00:47:12;;;;;;;38.10;4.70;;;;;;;;;;2060377;28;20023;-60
2023/04/09 00:48:31;;;;;;;22.88;4.90;;;;;;;;;;2062240;28;20109;-60
2023/04/09 00:49:50;;;;;;;26.45;4.65;;;;;;;;;;2060714;28;20034;-60
2023/04/09 00:51:09;;;;;;;24.52;5.00;;;;;;;;;;2061674;28;20038;-59
2023/04/09 00:52:31;;;;;;;18.48;4.50;;;;;;;;;;2061046;28;20113;-59
2023/04/09 00:53:50;;;;;;;19.13;5.43;;;;;;;;;;2061883;28;20050;-65
2023/04/09 00:55:09;;;;;;;15.52;4.30;;;;;;;;;;2062293;28;20034;-61
2023/04/09 00:56:28;;;;;;;16.27;4.57;;;;;;;;;;2062632;28;20118;-61
2023/04/09 00:57:47;;;;;;;24.15;4.78;;;;;;;;;;2062678;28;20415;-61
2023/04/09 00:59:07;;;;;;;18.77;4.45;;;;;;;;;;2061527;28;20440;-60
2023/04/09 01:00:26;;;;;;;16.95;4.25;;;;;;;;;;2061975;28;20310;-61
2023/04/09 01:01:45;;;;;;;17.77;5.10;;;;;;;;;;2060714;28;20023;-62
2023/04/09 01:03:05;;;;;;;14.88;4.50;;;;;;;;;;2059978;28;20046;-61
2023/04/09 01:04:24;;;;;;;21.08;5.15;;;;;;;;;;2060464;28;20492;-61
2023/04/09 01:05:53;;;;;;;15.70;3.95;;;;;;;;;;2061456;28;20420;-61
2023/04/09 01:07:12;;;;;;;24.05;4.78;;;;;;;;;;2061959;28;20026;-61
2023/04/09 01:08:43;;;;;;;21.38;4.93;;;;;;;;;;2059919;28;20026;-61
2023/04/09 01:10:29;;;;;;;19.85;4.60;;;;;;;;;;2062144;28;20046;-61
2023/04/09 01:12:08;;;;;;;17.77;4.15;;;;;;;;;;2052959;28;20038;-61
2023/04/09 01:13:29;;;;;;;21.45;4.10;;;;;;;;;;2063225;28;20498;-61
2023/04/09 01:14:52;;;;;;;12.70;4.20;;;;;;;;;;2061316;28;20487;-61
2023/04/09 01:16:11;;;;;;;13.95;3.40;;;;;;;;;;2060915;28;20113;-60
2023/04/09 01:17:36;;;;;;;16.45;4.75;;;;;;;;;;2061266;28;20038;-61
2023/04/09 01:18:57;;;;;;;12.43;3.00;;;;;;;;;;2059410;28;20050;-61
2023/04/09 01:20:19;;;;;;;9.88;3.60;;;;;;;;;;2060281;28;20062;-61
2023/04/09 01:21:39;;;;;;;10.48;3.45;;;;;;;;;;2063168;28;20034;-61
2023/04/09 01:23:16;;;;;;;13.65;4.07;;;;;;;;;;2061985;28;21394;-61
2023/04/09 01:24:38;;;;;;;18.50;4.28;;;;;;;;;;2061986;28;20038;-61
2023/04/09 01:26:15;;;;;;;14.60;4.20;;;;;;;;;;2062171;28;20031;-60
2023/04/09 01:27:45;;;;;;;18.00;3.70;;;;;;;;;;2062478;28;20491;-62
2023/04/09 01:29:05;;;;;;;11.15;3.72;;;;;;;;;;2059938;28;20113;-61
2023/04/09 01:30:25;;;;;;;33.35;5.55;;;;;;;;;;2059408;28;20488;-61
2023/04/09 01:31:44;;;;;;;19.98;5.22;;;;;;;;;;2062338;28;20064;-60
2023/04/09 01:33:04;;;;;;;16.27;5.13;;;;;;;;;;2061137;28;20034;-61
2023/04/09 01:34:24;;;;;;;21.67;4.60;;;;;;;;;;2061822;28;20026;-61
2023/04/09 01:35:44;;;;;;;16.10;4.75;;;;;;;;;;2062052;28;20027;-61
2023/04/09 01:37:03;;;;;;;19.58;4.30;;;;;;;;;;2060835;28;20165;-61
2023/04/09 01:38:23;;;;;;;21.02;5.00;;;;;;;;;;2059139;28;20038;-61
2023/04/09 01:39:42;;;;;;;16.98;5.05;;;;;;;;;;2060225;28;20038;-62
2023/04/09 01:41:02;;;;;;;20.15;4.78;;;;;;;;;;2062654;28;20454;-62
2023/04/09 01:42:21;;;;;;;21.42;5.00;;;;;;;;;;2062450;28;20030;-61
2023/04/09 01:43:40;;;;;;;16.80;4.97;;;;;;;;;;2061277;28;20030;-63
2023/04/09 01:45:01;;;;;;;27.48;4.60;;;;;;;;;;2060680;28;20026;-62
2023/04/09 01:46:20;;;;;;;15.20;3.67;;;;;;;;;;2063037;28;20043;-62
2023/04/09 01:47:40;;;;;;;12.02;3.58;;;;;;;;;;2063019;28;20065;-62
2023/04/09 01:48:59;;;;;;;10.95;3.47;;;;;;;;;;2062941;28;20054;-61
2023/04/09 01:50:18;;;;;;;20.55;3.80;;;;;;;;;;2062538;28;20034;-62
2023/04/09 01:51:37;;;;;;;17.38;4.10;;;;;;;;;;2063489;28;20114;-61
2023/04/09 01:52:56;;;;;;;16.73;4.45;;;;;;;;;;2060727;28;20543;-62
2023/04/09 01:54:15;;;;;;;19.20;3.55;;;;;;;;;;2062854;28;20038;-61
2023/04/09 01:55:34;;;;;;;10.52;3.25;;;;;;;;;;2065056;28;20062;-62
2023/04/09 01:56:53;;;;;;;16.25;3.92;;;;;;;;;;2063291;28;20034;-62
2023/04/09 01:58:12;;;;;;;7.82;3.50;;;;;;;;;;2062715;28;20034;-62
2023/04/09 01:59:31;;;;;;;11.27;3.15;;;;;;;;;;2065026;28;20506;-61
2023/04/09 02:00:50;;;;;;;10.27;3.42;;;;;;;;;;2062974;28;20483;-61
2023/04/09 02:02:14;;;;;;;11.93;3.60;;;;;;;;;;2063110;28;20414;-62
2023/04/09 02:03:35;;;;;;;12.60;3.22;;;;;;;;;;2063166;28;20042;-61
2023/04/09 02:04:57;;;;;;;14.13;4.30;;;;;;;;;;2062807;28;20046;-61
2023/04/09 02:06:25;;;;;;;12.48;3.45;;;;;;;;;;2063505;28;20034;-61
2023/04/09 02:07:46;;;;;;;9.02;3.22;;;;;;;;;;2062133;28;20609;-61
2023/04/09 02:09:07;;;;;;;11.98;3.95;;;;;;;;;;2061585;28;20031;-62
2023/04/09 02:10:28;;;;;;;9.90;3.50;;;;;;;;;;2061513;28;20034;-62
2023/04/09 02:11:47;;;;;;;12.02;3.30;;;;;;;;;;2063138;28;20500;-61
2023/04/09 02:13:08;;;;;;;16.33;3.92;;;;;;;;;;2060631;28;20550;-62
2023/04/09 02:14:28;;;;;;;11.25;3.50;;;;;;;;;;2064565;28;20030;-62
2023/04/09 02:15:47;;;;;;;13.02;3.20;;;;;;;;;;2064145;28;20030;-61
2023/04/09 02:17:06;;;;;;;15.63;3.80;;;;;;;;;;2061654;28;20496;-62
2023/04/09 02:18:27;;;;;;;13.25;3.30;;;;;;;;;;2062353;28;20034;-61
2023/04/09 02:19:46;;;;;;;11.43;3.20;;;;;;;;;;2064067;28;20034;-61
2023/04/09 02:21:06;;;;;;;28.20;3.63;;;;;;;;;;2060931;28;20472;-61
2023/04/09 02:22:25;;;;;;;8.43;3.22;;;;;;;;;;2062991;28;20061;-62
2023/04/09 02:23:44;;;;;;;11.90;3.33;;;;;;;;;;2062592;28;20057;-61
2023/04/09 02:25:03;;;;;;;6.70;3.13;;;;;;;;;;2060536;28;20034;-60
2023/04/09 02:26:22;;;;;;;10.80;3.42;;;;;;;;;;2062097;28;20504;-61
2023/04/09 02:27:42;;;;;;;11.73;3.47;;;;;;;;;;2061817;28;20117;-62
2023/04/09 02:29:01;;;;;;;11.75;3.25;;;;;;;;;;2062553;28;20043;-61
2023/04/09 02:30:20;;;;;;;11.05;3.75;;;;;;;;;;2061452;28;20125;-61
2023/04/09 02:31:39;;;;;;;10.27;3.67;;;;;;;;;;2064362;28;20038;-61
2023/04/09 02:32:58;;;;;;;11.93;3.50;;;;;;;;;;2063145;28;20038;-62
2023/04/09 02:34:17;;;;;;;7.40;3.15;;;;;;;;;;2062174;28;20371;-62
2023/04/09 02:35:36;;;;;;;13.38;2.92;;;;;;;;;;2061926;28;20499;-62
2023/04/09 02:36:55;;;;;;;11.30;3.25;;;;;;;;;;2064058;28;20022;-61
2023/04/09 02:38:14;;;;;;;7.75;3.13;;;;;;;;;;2060476;28;20043;-62
2023/04/09 02:39:33;;;;;;;10.18;3.42;;;;;;;;;;2064694;28;20027;-61
2023/04/09 02:40:52;;;;;;;10.10;2.80;;;;;;;;;;2064390;28;20026;-62
2023/04/09 02:42:11;;;;;;;11.23;2.60;;;;;;;;;;2061025;28;20035;-61
2023/04/09 02:43:30;;;;;;;9.07;2.88;;;;;;;;;;2062171;28;20046;-65
2023/04/09 02:44:49;;;;;;;8.05;2.67;;;;;;;;;;2061826;28;20065;-62
2023/04/09 02:46:08;;;;;;;4.75;2.65;;;;;;;;;;2064294;28;20038;-62
2023/04/09 02:47:29;;;;;;;9.38;2.95;;;;;;;;;;2062807;28;20042;-61
2023/04/09 02:48:48;;;;;;;10.82;3.20;;;;;;;;;;2061731;28;20039;-61
2023/04/09 02:50:07;;;;;;;7.57;3.47;;;;;;;;;;2064008;28;20034;-61
2023/04/09 02:51:26;;;;;;;8.43;3.10;;;;;;;;;;2061196;28;20125;-62
2023/04/09 02:52:46;;;;;;;10.63;3.30;;;;;;;;;;2061166;28;20030;-61
2023/04/09 02:54:05;;;;;;;5.40;2.55;;;;;;;;;;2059803;28;20043;-61
2023/04/09 02:55:23;;;;;;;13.52;3.35;;;;;;;;;;2064289;28;20030;-61
2023/04/09 02:56:42;;;;;;;20.27;3.10;;;;;;;;;;2063896;28;20468;-61
2023/04/09 02:58:01;;;;;;;10.55;3.08;;;;;;;;;;2064351;28;20046;-61
2023/04/09 02:59:20;;;;;;;10.40;2.90;;;;;;;;;;2064011;28;20484;-61
2023/04/09 03:00:39;;;;;;;8.85;2.95;;;;;;;;;;2062451;28;20030;-62
2023/04/09 03:01:58;;;;;;;7.05;2.85;;;;;;;;;;2061446;28;20030;-61
2023/04/09 03:03:17;;;;;;;8.45;3.50;;;;;;;;;;2063644;28;20058;-62
2023/04/09 03:04:36;;;;;;;7.90;2.92;;;;;;;;;;2062004;28;20445;-61
2023/04/09 03:05:55;;;;;;;10.70;3.45;;;;;;;;;;2060854;28;20047;-61
2023/04/09 03:07:14;;;;;;;10.93;3.35;;;;;;;;;;2062175;28;20038;-60
2023/04/09 03:08:34;;;;;;;12.13;3.35;;;;;;;;;;2061293;28;20034;-62
2023/04/09 03:09:53;;;;;;;12.45;3.60;;;;;;;;;;2064552;28;20053;-62
2023/04/09 03:11:12;;;;;;;12.27;2.65;;;;;;;;;;2063270;28;20034;-61
2023/04/09 03:12:31;;;;;;;11.50;2.55;;;;;;;;;;2060916;28;20035;-61
2023/04/09 03:13:50;;;;;;;13.25;2.58;;;;;;;;;;2063261;28;20391;-61
2023/04/09 03:15:10;;;;;;;10.18;2.22;;;;;;;;;;2063380;28;20236;-62
2023/04/09 03:16:28;;;;;;;5.50;2.15;;;;;;;;;;2061948;28;20022;-61
2023/04/09 03:17:47;;;;;;;4.80;2.40;;;;;;;;;;2062540;28;20062;-62
2023/04/09 03:19:06;;;;;;;7.63;2.25;;;;;;;;;;2062375;28;20026;-61
2023/04/09 03:20:25;;;;;;;6.40;2.60;;;;;;;;;;2061028;28;20038;-62
2023/04/09 03:21:45;;;;;;;7.65;2.72;;;;;;;;;;2064185;28;20062;-62
2023/04/09 03:23:04;;;;;;;7.80;2.40;;;;;;;;;;2063378;28;20030;-61
2023/04/09 03:24:22;;;;;;;9.27;2.53;;;;;;;;;;2060471;28;20109;-61
2023/04/09 03:25:41;;;;;;;7.68;2.60;;;;;;;;;;2064042;28;20027;-62
2023/04/09 03:27:00;;;;;;;11.38;2.72;;;;;;;;;;2062563;28;20066;-61
2023/04/09 03:28:20;;;;;;;13.85;2.65;;;;;;;;;;2062632;28;20034;-60
2023/04/09 03:29:39;;;;;;;6.55;1.83;;;;;;;;;;2061803;28;20387;-62
2023/04/09 03:30:58;;;;;;;11.30;2.80;;;;;;;;;;2060054;28;20456;-61
2023/04/09 03:32:17;;;;;;;5.50;2.20;;;;;;;;;;2063553;28;20559;-60
2023/04/09 03:33:36;;;;;;;6.80;1.75;;;;;;;;;;2062160;28;20027;-61
2023/04/09 03:34:55;;;;;;;7.57;2.35;;;;;;;;;;2062525;28;20027;-60
2023/04/09 03:36:14;;;;;;;3.65;2.30;;;;;;;;;;2061660;28;20038;-62
2023/04/09 03:37:33;;;;;;;4.72;2.05;;;;;;;;;;2061325;28;20038;-62
2023/04/09 03:38:52;;;;;;;6.93;2.13;;;;;;;;;;2063360;28;20503;-62
2023/04/09 03:40:11;;;;;;;14.68;2.58;;;;;;;;;;2063371;28;20034;-61
2023/04/09 03:41:30;;;;;;;6.15;2.08;;;;;;;;;;2064355;28;20491;-62
2023/04/09 03:42:49;;;;;;;18.48;2.60;;;;;;;;;;2062692;28;20030;-62
2023/04/09 03:44:08;;;;;;;8.77;2.00;;;;;;;;;;2063536;28;20035;-61
2023/04/09 03:45:28;;;;;;;4.30;2.13;;;;;;;;;;2063301;28;20107;-60
2023/04/09 03:46:46;;;;;;;4.90;1.73;;;;;;;;;;2061682;28;20043;-62
2023/04/09 03:48:06;;;;;;;7.15;2.40;;;;;;;;;;2062888;28;20034;-61
2023/04/09 03:49:25;;;;;;;4.05;1.77;;;;;;;;;;2063106;28;20038;-61
2023/04/09 03:50:44;;;;;;;6.05;2.00;;;;;;;;;;2063657;28;20233;-61
2023/04/09 03:52:03;;;;;;;4.72;1.92;;;;;;;;;;2062281;28;20155;-61
2023/04/09 03:53:22;;;;;;;5.22;1.80;;;;;;;;;;2062326;28;20439;-61
2023/04/09 03:54:42;;;;;;;5.95;1.98;;;;;;;;;;2062517;28;20125;-61
2023/04/09 03:56:01;;;;;;;8.02;1.92;;;;;;;;;;2063337;28;20037;-61
2023/04/09 03:57:20;;;;;;;14.43;2.60;;;;;;;;;;2062537;28;20058;-62
2023/04/09 03:58:39;;;;;;;7.78;1.85;;;;;;;;;;2062827;28;20427;-61
2023/04/09 03:59:58;;;;;;;8.18;2.03;;;;;;;;;;2063339;28;20495;-61
2023/04/09 04:01:17;;;;;;;7.93;2.05;;;;;;;;;;2064695;28;20693;-61
2023/04/09 04:02:36;;;;;;;6.47;2.03;;;;;;;;;;2064240;28;20058;-63
2023/04/09 04:03:55;;;;;;;11.48;2.15;;;;;;;;;;2061050;28;20030;-62
2023/04/09 04:05:14;;;;;;;9.63;2.90;;;;;;;;;;2058832;28;20046;-62
2023/04/09 04:06:34;;;;;;;6.03;1.90;;;;;;;;;;2059227;28;21049;-61
2023/04/09 04:07:53;;;;;;;7.93;1.83;;;;;;;;;;2061888;28;20038;-61
2023/04/09 04:09:12;;;;;;;5.15;2.05;;;;;;;;;;2061522;28;20034;-61
2023/04/09 04:10:32;;;;;;;4.80;2.00;;;;;;;;;;2063246;28;20399;-60
2023/04/09 04:11:51;;;;;;;4.80;1.80;;;;;;;;;;2061213;28;20034;-61
2023/04/09 04:13:10;;;;;;;10.10;2.30;;;;;;;;;;2062353;28;20106;-62
2023/04/09 04:14:29;;;;;;;15.13;2.00;;;;;;;;;;2061674;28;20034;-63
2023/04/09 04:15:49;;;;;;;12.48;2.50;;;;;;;;;;2061213;28;20022;-62
2023/04/09 04:17:09;;;;;;;15.15;2.85;;;;;;;;;;2062077;28;20038;-61
2023/04/09 04:18:28;;;;;;;8.45;2.28;;;;;;;;;;2062884;28;20030;-60
2023/04/09 04:19:46;;;;;;;5.28;2.38;;;;;;;;;;2061321;28;20030;-61
2023/04/09 04:21:11;;;;;;;8.80;1.95;;;;;;;;;;2061521;28;20030;-62
2023/04/09 04:22:30;;;;;;;4.53;1.67;;;;;;;;;;2062355;28;20042;-63
2023/04/09 04:23:49;;;;;;;9.73;2.25;;;;;;;;;;2062049;28;20034;-62
2023/04/09 04:25:08;;;;;;;17.58;2.50;;;;;;;;;;2061380;28;20030;-61
2023/04/09 04:26:27;;;;;;;9.93;2.53;;;;;;;;;;2064317;28;20096;-61
2023/04/09 04:27:46;;;;;;;12.82;2.38;;;;;;;;;;2059327;28;20488;-61
2023/04/09 04:29:05;;;;;;;4.63;2.10;;;;;;;;;;2061450;28;20038;-62
2023/04/09 04:30:24;;;;;;;9.00;2.65;;;;;;;;;;2062187;28;20038;-61
2023/04/09 04:31:43;;;;;;;13.00;2.80;;;;;;;;;;2062213;28;20057;-60
2023/04/09 04:33:02;;;;;;;3.75;1.75;;;;;;;;;;2061929;28;20396;-61
2023/04/09 04:34:21;;;;;;;6.10;2.60;;;;;;;;;;2063007;28;20547;-61
2023/04/09 04:35:40;;;;;;;22.95;4.00;;;;;;;;;;2062117;28;20038;-62
2023/04/09 04:36:59;;;;;;;8.27;2.42;;;;;;;;;;2060686;28;20026;-62
2023/04/09 04:38:18;;;;;;;10.50;2.42;;;;;;;;;;2064726;28;20395;-63
2023/04/09 04:39:37;;;;;;;7.13;1.83;;;;;;;;;;2060845;28;20395;-62
2023/04/09 04:40:56;;;;;;;7.80;1.67;;;;;;;;;;2062349;28;20022;-62
2023/04/09 04:42:15;;;;;;;10.60;1.90;;;;;;;;;;2060474;28;20031;-62
2023/04/09 04:43:34;;;;;;;7.28;2.58;;;;;;;;;;2061681;28;20038;-62
2023/04/09 04:44:53;;;;;;;10.73;2.25;;;;;;;;;;2062501;28;20039;-62
2023/04/09 04:46:12;;;;;;;7.85;2.25;;;;;;;;;;2063739;28;20034;-62
2023/04/09 04:47:31;;;;;;;5.15;2.03;;;;;;;;;;2061950;28;20035;-62
2023/04/09 04:48:50;;;;;;;8.30;2.08;;;;;;;;;;2062360;28;20034;-62
2023/04/09 04:50:09;;;;;;;11.05;2.33;;;;;;;;;;2061505;28;20026;-63
2023/04/09 04:51:31;;;;;;;8.30;2.17;;;;;;;;;;2061322;28;20042;-63
2023/04/09 04:52:50;;;;;;;3.47;1.45;;;;;;;;;;2057635;28;20038;-63
2023/04/09 04:54:10;;;;;;;9.85;2.70;;;;;;;;;;2063063;28;20038;-64
2023/04/09 04:55:29;;;;;;;11.80;2.63;;;;;;;;;;2058624;28;20491;-63
2023/04/09 04:56:47;;;;;;;29.30;3.20;;;;;;;;;;2061813;28;20602;-62
2023/04/09 04:58:06;;;;;;;7.70;1.92;;;;;;;;;;2058732;28;20590;-62
2023/04/09 04:59:25;;;;;;;15.10;2.20;;;;;;;;;;2059292;28;20030;-63
2023/04/09 05:00:45;;;;;;;8.80;2.03;;;;;;;;;;2060470;28;20033;-61
2023/04/09 05:02:04;;;;;;;11.02;1.90;;;;;;;;;;2061949;28;20487;-62
2023/04/09 05:03:23;;;;;;;11.50;2.38;;;;;;;;;;2060266;28;20042;-63
2023/04/09 05:04:42;;;;;;;8.77;2.10;;;;;;;;;;2062797;28;20026;-63
2023/04/09 05:06:01;;;;;;;8.13;1.70;;;;;;;;;;2063062;28;20038;-62
2023/04/09 05:07:21;;;;;;;10.52;2.35;;;;;;;;;;2059228;28;20531;-63
2023/04/09 05:08:40;;;;;;;5.40;1.52;;;;;;;;;;2059801;28;20042;-63
2023/04/09 05:09:59;;;;;;;6.07;1.80;;;;;;;;;;2062739;28;20062;-63
2023/04/09 05:11:18;;;;;;;12.88;2.40;;;;;;;;;;2062341;28;20042;-62
2023/04/09 05:12:37;;;;;;;6.38;1.63;;;;;;;;;;2060659;28;20026;-63
2023/04/09 05:13:56;;;;;;;8.40;1.90;;;;;;;;;;2063026;28;20042;-64
2023/04/09 05:15:15;;;;;;;9.07;2.13;;;;;;;;;;2062016;28;20053;-62
2023/04/09 05:16:34;;;;;;;2.08;1.55;;;;;;;;;;2063391;28;20023;-62
2023/04/09 05:17:54;;;;;;;6.78;1.60;;;;;;;;;;2063425;28;20399;-63
2023/04/09 05:19:13;;;;;;;6.70;1.60;;;;;;;;;;2061866;28;20026;-62
2023/04/09 05:20:32;;;;;;;4.05;2.10;;;;;;;;;;2064522;28;20527;-62
2023/04/09 05:21:51;;;;;;;6.60;1.70;;;;;;;;;;2063573;28;20030;-63
2023/04/09 05:23:11;;;;;;;7.68;2.42;;;;;;;;;;2063058;28;20034;-63
2023/04/09 05:24:30;;;;;;;8.75;2.22;;;;;;;;;;2065392;28;20034;-63
2023/04/09 05:25:49;;;;;;;5.80;1.90;;;;;;;;;;2063856;28;20126;-64
2023/04/09 05:27:08;;;;;;;3.92;1.48;;;;;;;;;;2064526;28;20022;-64
2023/04/09 05:28:28;;;;;;;14.13;1.92;;;;;;;;;;2064507;28;20067;-63
2023/04/09 05:29:47;;;;;;;6.95;2.00;;;;;;;;;;2064025;28;20023;-63
2023/04/09 05:31:11;;;;;;;8.90;1.80;;;;;;;;;;2063009;28;20026;-63
2023/04/09 05:32:30;;;;;;;4.40;1.75;;;;;;;;;;2062610;28;20074;-63
2023/04/09 05:33:49;;;;;;;16.60;2.22;;;;;;;;;;2061895;28;20038;-64
2023/04/09 05:35:09;;;;;;;6.07;1.58;;;;;;;;;;2062432;28;20043;-63
2023/04/09 05:36:27;;;;;;;4.25;1.80;;;;;;;;;;2062680;28;20034;-64
2023/04/09 05:37:46;;;;;;;4.72;1.42;;;;;;;;;;2062186;28;20047;-63
2023/04/09 05:39:05;;;;;;;2.78;1.42;;;;;;;;;;2062951;28;20022;-63
2023/04/09 05:40:25;;;;;;;6.97;1.67;;;;;;;;;;2063327;28;20122;-64
2023/04/09 05:41:45;;;;;;;6.38;1.80;;;;;;;;;;2061329;28;20035;-63
2023/04/09 05:43:04;;;;;;;8.25;1.63;;;;;;;;;;2060455;28;20130;-64
2023/04/09 05:44:23;;;;;;;6.57;1.30;;;;;;;;;;2063373;28;21029;-64
2023/04/09 05:45:42;;;;;;;5.35;1.75;;;;;;;;;;2064767;28;20105;-63
2023/04/09 05:47:01;;;;;;;2.47;1.60;;;;;;;;;;2062994;28;20487;-63
2023/04/09 05:48:20;;;;;;;4.15;1.88;;;;;;;;;;2062885;28;20030;-64
2023/04/09 05:49:39;;;;;;;7.03;1.67;;;;;;;;;;2069491;28;20446;-64
2023/04/09 05:50:58;;;;;;;11.65;1.65;;;;;;;;;;2062782;28;20026;-64
2023/04/09 05:52:17;;;;;;;10.52;1.50;;;;;;;;;;2059110;28;20535;-63
2023/04/09 05:53:36;;;;;;;3.90;1.67;;;;;;;;;;2060466;28;20038;-63
2023/04/09 05:54:55;;;;;;;7.18;1.77;;;;;;;;;;2063523;28;20026;-64
2023/04/09 05:56:14;;;;;;;9.27;1.40;;;;;;;;;;2062575;28;20026;-63
2023/04/09 05:57:33;;;;;;;8.90;2.20;;;;;;;;;;2061602;28;20026;-63
2023/04/09 05:58:52;;;;;;;9.98;2.20;;;;;;;;;;2062236;28;20023;-64
2023/04/09 06:00:12;;;;;;;8.57;1.63;;;;;;;;;;2063112;28;20030;-64
2023/04/09 06:01:31;;;;;;;7.72;2.13;;;;;;;;;;2061557;28;20459;-63
2023/04/09 06:02:50;;;;;;;14.23;2.13;;;;;;;;;;2064208;28;20508;-64
2023/04/09 06:04:09;;;;;;;11.63;1.58;;;;;;;;;;2065559;28;20046;-63
2023/04/09 06:05:28;;;;;;;7.20;1.52;;;;;;;;;;2062812;28;20614;-63
2023/04/09 06:06:47;;;;;;;7.05;1.70;;;;;;;;;;2063248;28;20082;-63
2023/04/09 06:08:06;;;;;;;5.28;1.20;;;;;;;;;;2063532;28;20030;-64
2023/04/09 06:09:26;;;;;;;7.07;1.55;;;;;;;;;;2063513;28;20109;-63
2023/04/09 06:10:45;;;;;;;9.05;1.63;;;;;;;;;;2063208;28;20026;-63
2023/04/09 06:12:04;;;;;;;8.75;1.52;;;;;;;;;;2064066;28;20038;-63
2023/04/09 06:13:23;;;;;;;2.65;1.25;;;;;;;;;;2061639;28;20046;-63
2023/04/09 06:14:42;;;;;;;8.60;1.65;;;;;;;;;;2062719;28;20066;-64
2023/04/09 06:16:07;;;;;;;4.00;1.25;;;;;;;;;;2064432;28;20457;-63
2023/04/09 06:17:27;;;;;;;6.28;1.52;;;;;;;;;;2064025;28;20038;-63
2023/04/09 06:18:48;;;;;;;4.90;1.38;;;;;;;;;;2062934;28;20065;-63
2023/04/09 06:20:07;;;;;;;2.72;1.23;;;;;;;;;;2060728;28;20030;-63
2023/04/09 06:21:26;;;;;;;10.23;2.15;;;;;;;;;;2059676;28;20034;-63
2023/04/09 06:22:45;;;;;;;3.35;1.25;;;;;;;;;;2061815;28;20026;-63
2023/04/09 06:24:04;;;;;;;7.22;1.70;;;;;;;;;;2059017;28;20038;-71
2023/04/09 06:25:23;;;;;;;5.55;1.20;;;;;;;;;;2063116;28;20034;-70
2023/04/09 06:26:42;;;;;;;4.38;1.60;;;;;;;;;;2063221;28;20038;-69
2023/04/09 06:28:02;;;;;;;11.18;2.03;;;;;;;;;;2061536;28;20042;-69
2023/04/09 06:29:21;;;;;;;3.92;1.35;;;;;;;;;;2060039;28;20085;-71
2023/04/09 06:30:40;;;;;;;4.13;1.20;;;;;;;;;;2062086;28;20062;-71
2023/04/09 06:31:59;;;;;;;4.80;1.60;;;;;;;;;;2064643;28;20478;-70
2023/04/09 06:33:19;;;;;;;5.50;1.25;;;;;;;;;;2063440;28;20098;-71
2023/04/09 06:34:38;;;;;;;5.38;1.45;;;;;;;;;;2061277;28;20034;-70
2023/04/09 06:35:57;;;;;;;13.85;1.55;;;;;;;;;;2064168;28;20023;-71
2023/04/09 06:37:16;;;;;;;2.85;1.10;;;;;;;;;;2060905;28;20042;-70
2023/04/09 06:38:35;;;;;;;3.70;1.48;;;;;;;;;;2063661;28;20484;-70
2023/04/09 06:39:54;;;;;;;22.30;2.75;;;;;;;;;;2062617;28;20026;-69
2023/04/09 06:41:13;;;;;;;8.27;1.55;;;;;;;;;;2065082;28;20026;-70
2023/04/09 06:42:32;;;;;;;4.55;1.80;;;;;;;;;;2062815;28;20022;-70
2023/04/09 06:43:51;;;;;;;6.28;1.13;;;;;;;;;;2060868;28;20034;-69
2023/04/09 06:45:10;;;;;;;10.27;1.45;;;;;;;;;;2062785;28;20046;-70
2023/04/09 06:46:30;;;;;;;4.00;1.30;;;;;;;;;;2062221;28;20043;-70
2023/04/09 06:47:49;;;;;;;4.30;1.58;;;;;;;;;;2062533;28;20062;-70
2023/04/09 06:49:08;;;;;;;5.35;1.17;;;;;;;;;;2061788;28;20038;-71
2023/04/09 06:50:27;;;;;;;6.20;1.80;;;;;;;;;;2061510;28;20417;-70
2023/04/09 06:51:46;;;;;;;6.57;4.03;;;;;;;;;;2063830;28;20153;-71
2023/04/09 06:53:05;;;;;;;10.27;2.33;;;;;;;;;;2063048;28;20488;-71
2023/04/09 06:54:24;;;;;;;10.90;1.75;;;;;;;;;;2064095;28;20030;-71
2023/04/09 06:55:43;;;;;;;8.13;1.67;;;;;;;;;;2061994;28;20031;-71
2023/04/09 06:57:02;;;;;;;5.53;2.20;;;;;;;;;;2062755;28;20026;-70
2023/04/09 06:58:21;;;;;;;4.47;2.03;;;;;;;;;;2061389;28;20031;-70
2023/04/09 06:59:40;;;;;;;2.25;1.58;;;;;;;;;;2062289;28;20035;-70
2023/04/09 07:00:59;;;;;;;5.78;1.83;;;;;;;;;;2060317;28;20022;-70
2023/04/09 07:02:18;;;;;;;1.38;1.10;;;;;;;;;;2065778;28;20031;-71
2023/04/09 07:03:37;;;;;;;2.90;1.30;;;;;;;;;;2063000;28;20054;-70
2023/04/09 07:04:56;;;;;;;9.43;1.55;;;;;;;;;;2061985;28;21435;-71
2023/04/09 07:06:15;;;;;;;9.32;1.80;;;;;;;;;;2058164;28;20038;-70
2023/04/09 07:07:34;;;;;;;7.28;1.30;;;;;;;;;;2061050;28;20398;-70
2023/04/09 07:08:53;;;;;;;5.32;1.73;;;;;;;;;;2063362;28;20038;-69
2023/04/09 07:10:12;;;;;;;8.55;2.00;;;;;;;;;;2063540;28;20038;-69
2023/04/09 07:11:31;;;;;;;2.35;1.20;;;;;;;;;;2063562;28;20026;-69
2023/04/09 07:12:50;;;;;;;5.45;1.08;;;;;;;;;;2063877;28;20030;-69
2023/04/09 07:14:09;;;;;;;2.80;1.13;;;;;;;;;;2062863;28;20039;-69
2023/04/09 07:15:28;;;;;;;7.28;1.38;;;;;;;;;;2064754;28;20030;-69
2023/04/09 07:16:47;;;;;;;3.70;1.30;;;;;;;;;;2063215;28;20038;-69
2023/04/09 07:18:06;;;;;;;5.70;1.30;;;;;;;;;;2061050;28;20031;-69
2023/04/09 07:19:25;;;;;;;2.67;1.40;;;;;;;;;;2062793;28;20106;-70
2023/04/09 07:20:44;;;;;;;4.88;1.27;;;;;;;;;;2062096;28;20050;-70
2023/04/09 07:22:03;;;;;;;1.77;1.10;;;;;;;;;;2062866;28;20026;-70
2023/04/09 07:23:22;;;;;;;6.40;1.70;;;;;;;;;;2062087;28;20034;-69
2023/04/09 07:24:41;;;;;;;7.90;1.35;;;;;;;;;;2058361;28;20131;-69
2023/04/09 07:26:04;;;;;;;7.90;1.98;;;;;;;;;;2062073;28;20034;-69
2023/04/09 07:27:23;;;;;;;1.70;1.27;;;;;;;;;;2058978;28;20034;-70
2023/04/09 07:28:42;;;;;;;7.63;1.55;;;;;;;;;;2062697;28;20121;-70
2023/04/09 07:30:02;;;;;;;3.60;1.50;;;;;;;;;;2061561;28;20038;-70
2023/04/09 07:31:21;;;;;;;8.18;1.80;;;;;;;;;;2060388;28;20034;-70
2023/04/09 07:32:40;;;;;;;5.35;1.40;;;;;;;;;;2063618;28;20109;-70
2023/04/09 07:33:59;;;;;;;2.90;1.30;;;;;;;;;;2058932;28;20500;-70
2023/04/09 07:35:18;;;;;;;2.78;1.40;;;;;;;;;;2060491;28;20043;-69
2023/04/09 07:36:38;;;;;;;3.30;1.10;;;;;;;;;;2058893;28;20057;-70
2023/04/09 07:37:57;;;;;;;2.88;1.42;;;;;;;;;;2056698;28;20023;-68
2023/04/09 07:39:17;;;;;;;5.07;1.20;;;;;;;;;;2060232;28;20026;-68
2023/04/09 07:40:36;;;;;;;5.47;1.60;;;;;;;;;;2058463;28;20034;-68
2023/04/09 07:41:56;;;;;;;4.43;1.70;;;;;;;;;;2061757;28;20042;-69
2023/04/09 07:43:15;;;;;;;5.63;1.20;;;;;;;;;;2059862;28;20027;-68
2023/04/09 07:44:35;;;;;;;6.03;1.75;;;;;;;;;;2060929;28;20034;-70
2023/04/09 07:45:54;;;;;;;7.20;2.70;;;;;;;;;;2063974;28;20030;-71
2023/04/09 07:47:13;;;;;;;3.70;2.13;;;;;;;;;;2059782;28;20022;-70
2023/04/09 07:48:32;;;;;;;6.18;1.92;;;;;;;;;;2062867;28;20034;-71
2023/04/09 07:49:51;;;;;;;3.10;1.63;;;;;;;;;;2063512;28;20121;-71
2023/04/09 07:51:10;;;;;;;19.20;2.03;;;;;;;;;;2063946;28;20034;-70
2023/04/09 07:52:29;;;;;;;9.18;1.60;;;;;;;;;;2063943;28;20035;-70
2023/04/09 07:53:48;;;;;;;7.03;1.58;;;;;;;;;;2062359;28;20027;-70